Stratton, Colorado
Current Conditions -  °F | °C
As of 8:53 AM on Wednesday 28 Jan 2015 (Local Time) from KITR Reporting Station
Clear Clear  
Wind Chill: 39°   Ceiling: Unl
Heat Index: 45°   Visibility: 10mi
Dew Point: 31°   Wind: 13mph
Humidity: 58%   Direction: 300°WNW
Pressure: 29.99"   Gusts: NA
Location:  39.3°N, 102.6°W
Report Text: KITR 281553Z AUTO 30011KT 10SM CLR 07/M01 A2999 RMK AO2 SLP147 T00721006
Loading
Personal Weather Stations






























Interactive Weather Map New forecast layout! Learn more

10-Day Weather Forecast

Advertisements
Track Severe Weather on mobile